Time,TemperatureF,DewpointF,PressureIn,WindDirection,WindDirectionDegrees,WindSpeedMPH,WindSpeedGustMPH,Humidity,HourlyPrecipIn,Conditions,Clouds,dailyrainin,SoftwareType,DateUTC
2013-10-16 00:29:00,52.2,50.5,30.20,WSW,254,0.0,2.0,94,0.00,,,0.00,VWS V14.01,2013-10-16 04:29:00,
2013-10-16 00:59:00,52.3,50.6,30.19,WSW,254,1.0,2.0,94,0.00,,,0.00,VWS V14.01,2013-10-16 04:59:00,
2013-10-16 01:29:00,52.3,50.6,30.19,WSW,254,0.0,2.0,94,0.00,,,0.00,VWS V14.01,2013-10-16 05:29:00,
2013-10-16 01:59:00,51.7,50.6,30.17,SSW,199,0.0,2.0,96,0.00,,,0.00,VWS V14.01,2013-10-16 05:59:00,
2013-10-16 02:29:00,50.8,49.7,30.17,South,186,1.0,2.0,96,0.00,,,0.00,VWS V14.01,2013-10-16 06:29:00,
2013-10-16 02:59:00,50.1,49.3,30.17,South,186,0.0,2.0,97,0.00,,,0.00,VWS V14.01,2013-10-16 06:59:00,
2013-10-16 03:29:00,50.4,49.6,30.17,South,186,0.0,2.0,97,0.00,,,0.00,VWS V14.01,2013-10-16 07:29:00,
2013-10-16 03:59:00,50.8,50.0,30.18,WSW,248,1.0,2.0,97,0.00,,,0.00,VWS V14.01,2013-10-16 07:59:00,
2013-10-16 04:29:00,51.5,51.0,30.17,WSW,248,0.0,1.0,98,0.00,,,0.00,VWS V14.01,2013-10-16 08:29:00,
2013-10-16 04:59:00,52.5,52.0,30.17,WSW,248,0.0,1.0,98,0.00,,,0.00,VWS V14.01,2013-10-16 08:59:00,
2013-10-16 05:29:00,53.6,53.0,30.17,East,93,1.0,2.0,98,0.00,,,0.00,VWS V14.01,2013-10-16 09:29:00,
2013-10-16 05:59:00,54.0,52.9,30.16,SE,138,8.0,8.0,96,0.00,,,0.00,VWS V14.01,2013-10-16 09:59:00,
2013-10-16 06:29:00,53.7,52.9,30.16,ESE,116,2.0,8.0,97,0.00,,,0.00,VWS V14.01,2013-10-16 10:29:00,
2013-10-16 06:59:00,54.0,52.9,30.15,ENE,71,3.0,6.0,96,0.00,,,0.00,VWS V14.01,2013-10-16 10:59:00,
2013-10-16 07:29:00,54.2,52.5,30.15,ESE,117,1.0,5.0,94,0.00,,,0.00,VWS V14.01,2013-10-16 11:29:00,
2013-10-16 07:59:00,54.1,52.4,30.15,East,98,2.0,4.0,94,0.00,,,0.00,VWS V14.01,2013-10-16 11:59:00,
2013-10-16 08:29:00,54.5,52.5,30.16,ENE,76,2.0,10.0,93,0.00,,,0.00,VWS V14.01,2013-10-16 12:29:00,
2013-10-16 08:59:00,55.4,52.5,30.16,ESE,120,2.0,11.0,90,0.00,,,0.00,VWS V14.01,2013-10-16 12:59:00,
2013-10-16 09:29:00,55.2,52.0,30.15,South,188,4.0,10.0,89,0.00,,,0.00,VWS V14.01,2013-10-16 13:29:00,
2013-10-16 09:59:00,56.1,52.3,30.14,SE,138,7.0,10.0,87,0.00,,,0.00,VWS V14.01,2013-10-16 13:59:00,
2013-10-16 10:29:00,56.2,52.7,30.12,SE,144,5.0,10.0,88,0.00,,,0.00,VWS V14.01,2013-10-16 14:29:00,
2013-10-16 10:59:00,56.4,53.2,30.11,East,82,1.0,7.0,89,0.00,,,0.00,VWS V14.01,2013-10-16 14:59:00,
2013-10-16 11:29:00,56.8,53.3,30.10,ESE,121,2.0,10.0,88,0.00,,,0.00,VWS V14.01,2013-10-16 15:29:00,
2013-10-16 11:59:00,56.7,53.8,30.09,SE,135,7.0,10.0,90,0.00,,,0.00,VWS V14.01,2013-10-16 15:59:00,
2013-10-16 12:29:00,57.2,54.3,30.08,ESE,118,3.0,10.0,90,0.00,,,0.00,VWS V14.01,2013-10-16 16:29:00,
2013-10-16 12:59:00,57.3,54.1,30.07,NE,34,3.0,11.0,89,0.00,,,0.00,VWS V14.01,2013-10-16 16:59:00,
2013-10-16 13:29:00,57.4,54.2,30.05,SE,137,5.0,8.0,89,0.00,,,0.00,VWS V14.01,2013-10-16 17:29:00,
2013-10-16 14:29:00,57.1,54.8,30.03,North,5,2.0,7.0,92,0.00,,,0.00,VWS V14.01,2013-10-16 18:29:00,
2013-10-16 14:59:00,56.7,54.7,30.02,East,80,2.0,5.0,93,0.00,,,0.00,VWS V14.01,2013-10-16 18:59:00,
2013-10-16 15:29:00,56.4,54.4,30.01,ESE,120,1.0,5.0,93,0.00,,,0.00,VWS V14.01,2013-10-16 19:29:00,
2013-10-16 15:59:00,56.9,54.6,30.00,South,185,1.0,5.0,92,0.00,,,0.00,VWS V14.01,2013-10-16 19:59:00,
2013-10-16 16:29:00,56.6,54.6,29.99,ENE,71,1.0,6.0,93,0.00,,,0.00,VWS V14.01,2013-10-16 20:29:00,
2013-10-16 16:59:00,56.1,54.4,29.98,North,355,1.0,6.0,94,0.00,,,0.00,VWS V14.01,2013-10-16 20:59:00,
2013-10-16 17:29:00,55.9,54.2,29.97,NE,53,0.0,5.0,94,0.00,,,0.00,VWS V14.01,2013-10-16 21:29:00,
2013-10-16 17:59:00,55.6,53.9,29.96,ENE,69,1.0,3.0,94,0.00,,,0.00,VWS V14.01,2013-10-16 21:59:00,
2013-10-16 18:29:00,55.1,54.0,29.96,East,82,0.0,2.0,96,0.00,,,0.00,VWS V14.01,2013-10-16 22:29:00,
2013-10-16 18:59:00,54.9,54.1,29.95,ENE,61,1.0,2.0,97,0.00,,,0.00,VWS V14.01,2013-10-16 22:59:00,
2013-10-16 19:29:00,54.8,54.0,29.94,NW,318,2.0,3.0,97,0.00,,,0.00,VWS V14.01,2013-10-16 23:29:00,
2013-10-16 19:59:00,54.9,54.1,29.95,West,259,3.0,3.0,97,0.00,,,0.00,VWS V14.01,2013-10-16 23:59:00,
2013-10-16 20:29:00,54.9,54.1,29.93,NW,306,2.0,3.0,97,0.00,,,0.00,VWS V14.01,2013-10-17 00:29:00,
2013-10-16 20:59:00,54.4,53.6,29.93,SSW,207,3.0,3.0,97,0.00,,,0.00,VWS V14.01,2013-10-17 00:59:00,
2013-10-16 21:29:00,54.6,53.8,29.92,SW,227,0.0,3.0,97,0.00,,,0.00,VWS V14.01,2013-10-17 01:29:00,
2013-10-16 21:59:00,54.9,54.1,29.92,NW,316,2.0,4.0,97,0.00,,,0.00,VWS V14.01,2013-10-17 01:59:00,
2013-10-16 22:29:00,55.0,54.2,29.91,NNW,336,0.0,4.0,97,0.00,,,0.00,VWS V14.01,2013-10-17 02:29:00,
2013-10-16 22:59:00,54.9,54.1,29.89,NNW,335,0.0,2.0,97,0.00,,,0.00,VWS V14.01,2013-10-17 02:59:00,
2013-10-16 23:29:00,55.1,53.7,29.89,NW,315,2.0,3.0,95,0.00,,,0.00,VWS V14.01,2013-10-17 03:29:00,
2013-10-16 23:59:00,54.7,53.6,29.89,WNW,301,2.0,3.0,96,0.00,,,0.00,VWS V14.01,2013-10-17 03:59:00,